Map

Track Data

SID SEASON NUMBER BASIN SUBBASIN NAME ISO_TIME NATURE LAT LON WMO_WIND WMO_PRES WMO_AGENCY TRACK_TYPE DIST2LAND LANDFALL IFLAG USA_AGENCY USA_ATCF_ID USA_LAT USA_LON USA_RECORD USA_STATUS USA_WIND USA_PRES USA_SSHS USA_R34_NE USA_R34_SE USA_R34_SW USA_R34_NW USA_R50_NE USA_R50_SE USA_R50_SW USA_R50_NW USA_R64_NE USA_R64_SE USA_R64_SW USA_R64_NW USA_POCI USA_ROCI USA_RMW USA_EYE TOKYO_LAT TOKYO_LON TOKYO_GRADE TOKYO_WIND TOKYO_PRES TOKYO_R50_DIR TOKYO_R50_LONG TOKYO_R50_SHORT TOKYO_R30_DIR TOKYO_R30_LONG TOKYO_R30_SHORT TOKYO_LAND CMA_LAT CMA_LON CMA_CAT CMA_WIND CMA_PRES HKO_LAT HKO_LON HKO_CAT HKO_WIND HKO_PRES NEWDELHI_LAT NEWDELHI_LON NEWDELHI_GRADE NEWDELHI_WIND NEWDELHI_PRES NEWDELHI_CI NEWDELHI_DP NEWDELHI_POCI REUNION_LAT REUNION_LON REUNION_TYPE REUNION_WIND REUNION_PRES REUNION_TNUM REUNION_CI REUNION_RMW REUNION_R34_NE REUNION_R34_SE REUNION_R34_SW REUNION_R34_NW REUNION_R50_NE REUNION_R50_SE REUNION_R50_SW REUNION_R50_NW REUNION_R64_NE REUNION_R64_SE REUNION_R64_SW REUNION_R64_NW BOM_LAT BOM_LON BOM_TYPE BOM_WIND BOM_PRES BOM_TNUM BOM_CI BOM_RMW BOM_R34_NE BOM_R34_SE BOM_R34_SW BOM_R34_NW BOM_R50_NE BOM_R50_SE BOM_R50_SW BOM_R50_NW BOM_R64_NE BOM_R64_SE BOM_R64_SW BOM_R64_NW BOM_ROCI BOM_POCI BOM_EYE BOM_POS_METHOD BOM_PRES_METHOD NADI_LAT NADI_LON NADI_CAT NADI_WIND NADI_PRES WELLINGTON_LAT WELLINGTON_LON WELLINGTON_WIND WELLINGTON_PRES DS824_LAT DS824_LON DS824_STAGE DS824_WIND DS824_PRES TD9636_LAT TD9636_LON TD9636_STAGE TD9636_WIND TD9636_PRES TD9635_LAT TD9635_LON TD9635_WIND TD9635_PRES TD9635_ROCI NEUMANN_LAT NEUMANN_LON NEUMANN_CLASS NEUMANN_WIND NEUMANN_PRES MLC_LAT MLC_LON MLC_CLASS MLC_WIND MLC_PRES USA_GUST BOM_GUST BOM_GUST_PER REUNION_GUST REUNION_GUST_PER USA_SEAHGT USA_SEARAD_NE USA_SEARAD_SE USA_SEARAD_SW USA_SEARAD_NW STORM_SPEED STORM_DIR
1990251N12238 1990 84 EP MM MARIE 1990-09-07 12:00:00 TS 12.0000 -122.000 25 1011 hurdat_epa main 1761 1761 O_____________ hurdat_epa EP161990 12.0000 -122.000 TD 25 1011 -1 12 280
1990251N12238 1990 84 EP MM MARIE 1990-09-07 15:00:00 TS 12.1053 -122.610 main 1790 1790 P_____________ EP161990 12.1053 -122.610 TD 25 1010 -1 12 280
1990251N12238 1990 84 EP MM MARIE 1990-09-07 18:00:00 TS 12.2000 -123.200 25 1010 hurdat_epa main 1821 1821 O_____________ hurdat_epa EP161990 12.2000 -123.200 TD 25 1010 -1 11 279
1990251N12238 1990 84 EP MM MARIE 1990-09-07 21:00:00 TS 12.2848 -123.758 main 1854 1854 P_____________ EP161990 12.2848 -123.758 TD 27 1009 -1 11 281
1990251N12238 1990 84 EP MM MARIE 1990-09-08 00:00:00 TS 12.4000 -124.300 30 1009 hurdat_epa main 1881 1881 O_____________ hurdat_epa EP161990 12.4000 -124.300 TD 30 1009 -1 11 286
1990251N12238 1990 84 EP MM MARIE 1990-09-08 03:00:00 TS 12.5850 -124.865 main 1908 1907 P_____________ EP161990 12.5850 -124.865 TD 30 1008 -1 11 290
1990251N12238 1990 84 EP MM MARIE 1990-09-08 06:00:00 TS 12.8000 -125.400 30 1007 hurdat_epa main 1929 1928 O_____________ hurdat_epa EP161990 12.8000 -125.400 TD 30 1007 -1 11 293
1990251N12238 1990 84 EP MM MARIE 1990-09-08 09:00:00 TS 12.9998 -125.865 main 1951 1951 P_____________ EP161990 12.9998 -125.865 TD 32 1005 -1 10 295
1990251N12238 1990 84 EP MM MARIE 1990-09-08 12:00:00 TS 13.2000 -126.300 35 1003 hurdat_epa main 1967 1967 O_____________ hurdat_epa EP161990 13.2000 -126.300 TS 35 1003 0 10 295
1990251N12238 1990 84 EP MM MARIE 1990-09-08 15:00:00 TS 13.4000 -126.758 main 1991 1991 P_____________ EP161990 13.4000 -126.758 TS 40 1001 0 10 295
1990251N12238 1990 84 EP MM MARIE 1990-09-08 18:00:00 TS 13.6000 -127.200 45 999 hurdat_epa main 2009 2009 O_____________ hurdat_epa EP161990 13.6000 -127.200 TS 45 999 0 9 296
1990251N12238 1990 84 EP MM MARIE 1990-09-08 21:00:00 TS 13.8075 -127.623 main 2028 2027 P_____________ EP161990 13.8075 -127.623 TS 50 996 0 9 297
1990251N12238 1990 84 EP MM MARIE 1990-09-09 00:00:00 TS 14.0000 -128.000 55 994 hurdat_epa main 2038 2037 O_____________ hurdat_epa EP161990 14.0000 -128.000 TS 55 994 0 8 297
1990251N12238 1990 84 EP MM MARIE 1990-09-09 03:00:00 TS 14.1574 -128.323 main 2042 2042 P_____________ EP161990 14.1574 -128.323 TS 60 990 0 7 297
1990251N12238 1990 84 EP MM MARIE 1990-09-09 06:00:00 TS 14.3000 -128.600 65 986 hurdat_epa main 2054 2053 O_____________ hurdat_epa EP161990 14.3000 -128.600 HU 65 986 1 6 300
1990251N12238 1990 84 EP MM MARIE 1990-09-09 09:00:00 TS 14.4575 -128.865 main 2059 2058 P_____________ EP161990 14.4575 -128.865 HU 70 983 1 6 302
1990251N12238 1990 84 EP MM MARIE 1990-09-09 12:00:00 TS 14.6000 -129.100 75 980 hurdat_epa main 2065 2064 O_____________ hurdat_epa EP161990 14.6000 -129.100 HU 75 980 1 5 301
1990251N12238 1990 84 EP MM MARIE 1990-09-09 15:00:00 TS 14.7150 -129.308 main 2072 2071 P_____________ EP161990 14.7150 -129.308 HU 77 979 1 4 297
1990251N12238 1990 84 EP MM MARIE 1990-09-09 18:00:00 TS 14.8000 -129.500 80 978 hurdat_epa main 2078 2078 O_____________ hurdat_epa EP161990 14.8000 -129.500 HU 80 978 1 4 291
1990251N12238 1990 84 EP MM MARIE 1990-09-09 21:00:00 TS 14.8575 -129.693 main 2085 2085 P_____________ EP161990 14.8575 -129.693 HU 82 976 1 4 285
1990251N12238 1990 84 EP MM MARIE 1990-09-10 00:00:00 TS 14.9000 -129.900 85 974 hurdat_epa main 2100 2100 O_____________ hurdat_epa EP161990 14.9000 -129.900 HU 85 974 2 4 283
1990251N12238 1990 84 EP MM MARIE 1990-09-10 03:00:00 TS 14.9575 -130.135 main 2108 2108 P_____________ EP161990 14.9575 -130.135 HU 87 971 2 5 282
1990251N12238 1990 84 EP MM MARIE 1990-09-10 06:00:00 TS 15.0000 -130.400 90 969 hurdat_epa main 2131 2131 O_____________ hurdat_epa EP161990 15.0000 -130.400 HU 90 969 2 5 276
1990251N12238 1990 84 EP MM MARIE 1990-09-10 09:00:00 TS 15.0150 -130.700 main 2154 2154 P_____________ EP161990 15.0150 -130.700 HU 95 965 2 6 270
1990251N12238 1990 84 EP MM MARIE 1990-09-10 12:00:00 TS 15.0000 -131.000 100 962 hurdat_epa main 2177 2177 O_____________ hurdat_epa EP161990 15.0000 -131.000 HU 100 962 3 5 264
1990251N12238 1990 84 EP MM MARIE 1990-09-10 15:00:00 TS 14.9574 -131.250 main 2201 2201 P_____________ EP161990 14.9574 -131.250 HU 105 956 3 5 258
1990251N12238 1990 84 EP MM MARIE 1990-09-10 18:00:00 TS 14.9000 -131.500 110 951 hurdat_epa main 2224 2224 O_____________ hurdat_epa EP161990 14.9000 -131.500 HU 110 951 3 5 258
1990251N12238 1990 84 EP MM MARIE 1990-09-10 21:00:00 TS 14.8500 -131.785 main 2255 2255 P_____________ EP161990 14.8500 -131.785 HU 115 948 4 6 260
1990251N12238 1990 84 EP MM MARIE 1990-09-11 00:00:00 TS 14.8000 -132.100 120 945 hurdat_epa main 2279 2279 O_____________ hurdat_epa EP161990 14.8000 -132.100 HU 120 945 4 6 260
1990251N12238 1990 84 EP MM MARIE 1990-09-11 03:00:00 TS 14.7350 -132.443 main 2311 2311 P_____________ EP161990 14.7350 -132.443 HU 120 944 4 7 262
1990251N12238 1990 84 EP MM MARIE 1990-09-11 06:00:00 TS 14.7000 -132.800 120 944 hurdat_epa main 2343 2343 O_____________ hurdat_epa EP161990 14.7000 -132.800 HU 120 944 4 7 269
1990251N12238 1990 84 EP MM MARIE 1990-09-11 09:00:00 TS 14.7274 -133.150 main 2366 2322 P_____________ EP161990 14.7274 -133.150 HU 120 945 4 7 278
1990251N12238 1990 84 EP MM MARIE 1990-09-11 12:00:00 TS 14.8000 -133.500 120 946 hurdat_epa main 2322 2287 O_____________ hurdat_epa EP161990 14.8000 -133.500 HU 120 946 4 7 283
1990251N12238 1990 84 EP MM MARIE 1990-09-11 15:00:00 TS 14.8849 -133.850 main 2277 2243 P_____________ EP161990 14.8849 -133.850 HU 117 947 4 7 286
1990251N12238 1990 84 EP MM MARIE 1990-09-11 18:00:00 TS 15.0000 -134.200 115 948 hurdat_epa main 2243 2209 O_____________ hurdat_epa EP161990 15.0000 -134.200 HU 115 948 4 7 291
1990251N12238 1990 84 EP MM MARIE 1990-09-11 21:00:00 TS 15.1425 -134.557 main 2199 2162 P_____________ EP161990 15.1425 -134.557 HU 112 950 3 7 294
1990251N12238 1990 84 EP MM MARIE 1990-09-12 00:00:00 TS 15.3000 -134.900 110 952 hurdat_epa main 2162 2128 O_____________ hurdat_epa EP161990 15.3000 -134.900 HU 110 952 3 7 295
1990251N12238 1990 84 EP MM MARIE 1990-09-12 03:00:00 TS 15.4425 -135.215 main 2128 2091 P_____________ EP161990 15.4425 -135.215 HU 105 956 3 7 297
1990251N12238 1990 84 EP MM MARIE 1990-09-12 06:00:00 TS 15.6000 -135.500 100 960 hurdat_epa main 2091 2064 O_____________ hurdat_epa EP161990 15.6000 -135.500 HU 100 960 3 6 305
1990251N12238 1990 84 EP MM MARIE 1990-09-12 09:00:00 TS 15.7999 -135.750 main 2054 2028 P_____________ EP161990 15.7999 -135.750 HU 95 964 2 6 310
1990251N12238 1990 84 EP MM MARIE 1990-09-12 12:00:00 TS 16.0000 -136.000 90 969 hurdat_epa main 2028 1994 O_____________ hurdat_epa EP161990 16.0000 -136.000 HU 90 969 2 6 304
1990251N12238 1990 84 EP MM MARIE 1990-09-12 15:00:00 TS 16.1500 -136.300 main 1991 1958 P_____________ EP161990 16.1500 -136.300 HU 87 971 2 7 298
1990251N12238 1990 84 EP MM MARIE 1990-09-12 18:00:00 TS 16.3000 -136.600 85 973 hurdat_epa main 1958 1932 O_____________ hurdat_epa EP161990 16.3000 -136.600 HU 85 973 2 6 304
1990251N12238 1990 84 EP MM MARIE 1990-09-12 21:00:00 TS 16.4999 -136.850 main 1921 1896 P_____________ EP161990 16.4999 -136.850 HU 87 973 2 6 310
1990251N12238 1990 84 EP MM MARIE 1990-09-13 00:00:00 TS 16.7000 -137.100 90 973 hurdat_epa main 1896 1862 O_____________ hurdat_epa EP161990 16.7000 -137.100 HU 90 973 2 6 304
1990251N12238 1990 84 EP MM MARIE 1990-09-13 03:00:00 TS 16.8575 -137.400 main 1860 1826 P_____________ EP161990 16.8575 -137.400 HU 90 971 2 6 298
1990251N12238 1990 84 EP MM MARIE 1990-09-13 06:00:00 TS 17.0000 -137.700 90 969 hurdat_epa main 1826 1801 O_____________ hurdat_epa EP161990 17.0000 -137.700 HU 90 969 2 6 300
1990251N12238 1990 84 EP MM MARIE 1990-09-13 09:00:00 TS 17.1674 -137.957 main 1791 1768 P_____________ EP161990 17.1649 -137.957 HU 92 966 2 6 302
1990251N12238 1990 84 EP MM MARIE 1990-09-13 12:00:00 TS 17.3000 -138.200 95 963 hurdat_epa main 1768 1747 O_____________ hurdat_epa EP161990 17.3000 -138.200 HU 95 963 2 5 291
1990251N12238 1990 84 EP MM MARIE 1990-09-13 15:00:00 TS 17.3458 -138.450 main 1736 1713 P_____________ EP161990 17.3650 -138.450 HU 97 961 3 5 278
1990251N12238 1990 84 EP MM MARIE 1990-09-13 18:00:00 TS 17.3667 -138.700 100 960 hurdat_epa main 1713 1693 O_____________ hurdat_epa EP161990 17.4000 -138.700 HU 100 960 3 5 282
1990251N12238 1990 84 EP MM MARIE 1990-09-13 21:00:00 TS 17.4458 -138.957 main 1682 1659 P_____________ EP161990 17.4650 -138.957 HU 100 960 3 5 286
1990251N12238 1990 84 EP MM MARIE 1990-09-14 00:00:00 TS 17.5000 -139.200 100 960 hurdat_epa main 1659 1638 O_____________ hurdat_epa EP161990 17.5000 -139.200 HU 100 960 3 4 271
1990251N12238 1990 84 EP MM MARIE 1990-09-14 03:00:00 TS 17.4524 -139.400 main 1638 1619 P_____________ EP161990 17.4499 -139.400 HU 100 960 3 4 255
1990251N12238 1990 84 EP MM MARIE 1990-09-14 06:00:00 TS 17.4000 -139.600 100 960 hurdat_epa main 1619 1599 O_____________ hurdat_epa EP161990 17.4000 -139.600 HU 100 960 3 4 270
1990251N12238 1990 84 EP MM MARIE 1990-09-14 09:00:00 TS 17.4528 -139.829 main 1597 1565 P_____________ EP161990 17.4499 -139.827 HU 100 960 3 5 282
1990251N12238 1990 84 EP CP MARIE 1990-09-14 12:00:00 TS 17.5000 -140.100 100 960 hurdat_epa main 1565 1534 O_____________ hurdat_epa EP161990 17.5000 -140.100 HU 100 960 3 6 271
1990251N12238 1990 84 EP CP MARIE 1990-09-14 15:00:00 TS 17.4649 -140.413 main 1534 1494 P_____________ EP161990 17.4649 -140.413 HU 100 960 3 7 261
1990251N12238 1990 84 EP CP MARIE 1990-09-14 18:00:00 TS 17.4000 -140.800 100 960 hurdat_epa main 1494 1442 O_____________ hurdat_epa EP161990 17.4000 -140.800 HU 100 960 3 8 263
1990251N12238 1990 84 EP CP MARIE 1990-09-14 21:00:00 TS 17.3651 -141.283 main 1442 1393 P_____________ EP161990 17.3651 -141.285 HU 100 960 3 10 264
1990251N12238 1990 84 EP CP MARIE 1990-09-15 00:00:00 TS 17.3000 -141.800 100 960 hurdat_epa main 1393 1354 O_____________ hurdat_epa EP161990 17.3000 -141.800 HU 100 960 3 10 258
1990251N12238 1990 84 EP CP MARIE 1990-09-15 03:00:00 TS 17.1649 -142.272 main 1343 1307 P_____________ EP161990 17.1648 -142.258 HU 100 960 3 9 251
1990251N12238 1990 84 EP CP MARIE 1990-09-15 06:00:00 TS 17.0000 -142.725 100 960 hurdat_epa main 1307 1269 O_____________ hurdat_epa EP161990 17.0000 -142.700 HU 100 960 3 9 249
1990251N12238 1990 84 EP CP MARIE 1990-09-15 09:00:00 TS 16.8348 -143.157 main 1262 1224 P_____________ EP161990 16.8349 -143.143 HU 100 960 3 9 250
1990251N12238 1990 84 EP CP MARIE 1990-09-15 12:00:00 TS 16.7000 -143.600 100 960 hurdat_epa main 1224 1176 O_____________ hurdat_epa EP161990 16.7000 -143.600 HU 100 960 3 9 257
1990251N12238 1990 84 EP CP MARIE 1990-09-15 15:00:00 TS 16.6274 -144.083 main 1176 1125 P_____________ EP161990 16.6274 -144.085 HU 100 960 3 10 264
1990251N12238 1990 84 EP CP MARIE 1990-09-15 18:00:00 TS 16.6000 -144.600 100 960 hurdat_epa main 1125 1075 O_____________ hurdat_epa EP161990 16.6000 -144.600 HU 100 960 3 10 268
1990251N12238 1990 84 EP CP MARIE 1990-09-15 21:00:00 TS 16.5849 -145.143 main 1075 1015 P_____________ EP161990 16.5849 -145.143 HU 100 960 3 11 270
1990251N12238 1990 84 EP CP MARIE 1990-09-16 00:00:00 TS 16.6000 -145.700 100 960 hurdat_epa main 1015 965 O_____________ hurdat_epa EP161990 16.6000 -145.700 HU 100 960 3 11 273
1990251N12238 1990 84 EP CP MARIE 1990-09-16 03:00:00 TS 16.6350 -146.265 main 955 901 P_____________ EP161990 16.6350 -146.265 HU 100 960 3 11 275
1990251N12238 1990 84 EP CP MARIE 1990-09-16 06:00:00 TS 16.7000 -146.800 100 960 hurdat_epa main 901 857 O_____________ hurdat_epa EP161990 16.7000 -146.800 HU 100 960 3 10 279
1990251N12238 1990 84 EP CP MARIE 1990-09-16 09:00:00 TS 16.7848 -147.273 main 848 804 P_____________ EP161990 16.7848 -147.273 HU 100 960 3 9 283
1990251N12238 1990 84 EP CP MARIE 1990-09-16 12:00:00 TS 16.9000 -147.700 100 960 hurdat_epa main 804 760 O_____________ hurdat_epa EP161990 16.9000 -147.700 HU 100 960 3 8 288
1990251N12238 1990 84 EP CP MARIE 1990-09-16 15:00:00 TS 17.0348 -148.093 main 760 712 P_____________ EP161990 17.0348 -148.093 HU 90 970 2 8 291
1990251N12238 1990 84 EP CP MARIE 1990-09-16 18:00:00 TS 17.2000 -148.500 80 980 hurdat_epa main 712 655 O_____________ hurdat_epa EP161990 17.2000 -148.500 HU 80 980 1 9 293
1990251N12238 1990 84 EP CP MARIE 1990-09-16 21:00:00 TS 17.4001 -149.000 main 655 597 P_____________ EP161990 17.4001 -149.000 HU 75 984 1 10 293
1990251N12238 1990 84 EP CP MARIE 1990-09-17 00:00:00 TS 17.6000 -149.500 70 989 hurdat_epa main 597 554 O_____________ hurdat_epa EP161990 17.6000 -149.500 HU 70 989 1 10 292
1990251N12238 1990 84 EP CP MARIE 1990-09-17 03:00:00 TS 17.7574 -149.923 main 550 506 P_____________ EP161990 17.7574 -149.923 HU 65 992 1 8 292
1990251N12238 1990 84 EP CP MARIE 1990-09-17 06:00:00 TS 17.9000 -150.300 60 996 hurdat_epa main 506 459 O_____________ hurdat_epa EP161990 17.9000 -150.300 TS 60 996 0 8 295
1990251N12238 1990 84 EP CP MARIE 1990-09-17 09:00:00 TS 18.0875 -150.672 main 459 425 P_____________ EP161990 18.0875 -150.672 TS 55 999 0 7 294
1990251N12238 1990 84 EP CP MARIE 1990-09-17 12:00:00 TS 18.2000 -151.000 50 1002 hurdat_epa main 425 400 O_____________ hurdat_epa EP161990 18.2000 -151.000 TS 50 1002 0 6 275
1990251N12238 1990 84 EP CP MARIE 1990-09-17 15:00:00 TS 18.1374 -151.273 main 400 385 P_____________ EP161990 18.1374 -151.273 TS 50 1002 0 5 247
1990251N12238 1990 84 EP CP MARIE 1990-09-17 18:00:00 TS 18.0000 -151.500 50 1002 hurdat_epa main 385 372 O_____________ hurdat_epa EP161990 18.0000 -151.500 TS 50 1002 0 5 242
1990251N12238 1990 84 EP CP MARIE 1990-09-17 21:00:00 TS 17.9224 -151.692 main 372 359 P_____________ EP161990 17.9224 -151.692 TS 55 999 0 4 242
1990251N12238 1990 84 EP CP MARIE 1990-09-18 00:00:00 TS 17.8000 -151.900 60 996 hurdat_epa main 359 346 O_____________ hurdat_epa EP161990 17.8000 -151.900 TS 60 996 0 6 233
1990251N12238 1990 84 EP CP MARIE 1990-09-18 03:00:00 TS 17.5725 -152.185 main 346 345 P_____________ EP161990 17.5725 -152.185 TS 60 996 0 8 229
1990251N12238 1990 84 EP CP MARIE 1990-09-18 06:00:00 TS 17.3000 -152.500 60 996 hurdat_epa main 345 337 O_____________ hurdat_epa EP161990 17.3000 -152.500 TS 60 996 0 8 228
1990251N12238 1990 84 EP CP MARIE 1990-09-18 09:00:00 TS 17.0425 -152.800 main 346 339 P_____________ EP161990 17.0425 -152.800 TS 57 998 0 8 229
1990251N12238 1990 84 EP CP MARIE 1990-09-18 12:00:00 TS 16.8000 -153.100 55 1000 hurdat_epa main 344 341 O_____________ hurdat_epa EP161990 16.8000 -153.100 TS 55 1000 0 7 230
1990251N12238 1990 84 EP CP MARIE 1990-09-18 15:00:00 TS 16.5774 -153.385 main 346 346 P_____________ EP161990 16.5774 -153.385 TS 47 1003 0 7 235
1990251N12238 1990 84 EP CP MARIE 1990-09-18 18:00:00 TS 16.4000 -153.700 40 1006 hurdat_epa main 350 336 O_____________ hurdat_epa EP161990 16.4000 -153.700 TS 40 1006 0 7 247
1990251N12238 1990 84 EP CP MARIE 1990-09-18 21:00:00 TS 16.2850 -154.092 main 336 326 P_____________ EP161990 16.2850 -154.092 TS 35 1009 0 8 255
1990251N12238 1990 84 EP CP MARIE 1990-09-19 00:00:00 TS 16.2000 -154.500 30 1012 hurdat_epa main 327 320 O_____________ hurdat_epa EP161990 16.2000 -154.500 TD 30 1012 -1 8 255
1990251N12238 1990 84 EP CP MARIE 1990-09-19 03:00:00 TS 16.0924 -154.865 main 324 321 P_____________ EP161990 16.0924 -154.865 TD 30 1012 -1 7 253
1990251N12238 1990 84 EP CP MARIE 1990-09-19 06:00:00 TS 16.0000 -155.200 30 1012 hurdat_epa main 328 325 O_____________ hurdat_epa EP161990 16.0000 -155.200 TD 30 1012 -1 6 256
1990251N12238 1990 84 EP CP MARIE 1990-09-19 09:00:00 TS 15.9424 -155.507 main 336 335 P_____________ EP161990 15.9424 -155.507 TD 30 1012 -1 6 260
1990251N12238 1990 84 EP CP MARIE 1990-09-19 12:00:00 TS 15.9000 -155.800 30 1012 hurdat_epa main 335 335 O_____________ hurdat_epa EP161990 15.9000 -155.800 TD 30 1012 -1 6 260
1990251N12238 1990 84 EP CP MARIE 1990-09-19 15:00:00 TS 15.8425 -156.100 main 349 349 P_____________ EP161990 15.8425 -156.100 TD 30 1012 -1 6 260
1990251N12238 1990 84 EP CP MARIE 1990-09-19 18:00:00 TS 15.8000 -156.400 30 1012 hurdat_epa main 354 354 O_____________ hurdat_epa EP161990 15.8000 -156.400 TD 30 1012 -1 6 265
1990251N12238 1990 84 EP CP MARIE 1990-09-19 21:00:00 TS 15.7924 -156.685 main 362 362 P_____________ EP161990 15.7924 -156.685 TD 30 1012 -1 6 270
1990251N12238 1990 84 EP CP MARIE 1990-09-20 00:00:00 TS 15.8000 -157.000 30 1012 hurdat_epa main 373 373 O_____________ hurdat_epa EP161990 15.8000 -157.000 TD 30 1012 -1 7 271
1990251N12238 1990 84 EP CP MARIE 1990-09-20 03:00:00 TS 15.8000 -157.385 main 391 391 P_____________ EP161990 15.8000 -157.385 TD 30 1012 -1 8 270
1990251N12238 1990 84 EP CP MARIE 1990-09-20 06:00:00 TS 15.8000 -157.800 30 1012 hurdat_epa main 412 412 O_____________ hurdat_epa EP161990 15.8000 -157.800 TD 30 1012 -1 8 269
1990251N12238 1990 84 EP CP MARIE 1990-09-20 09:00:00 TS 15.7924 -158.193 main 436 436 P_____________ EP161990 15.7924 -158.193 TD 30 1012 -1 8 270
1990251N12238 1990 84 EP CP MARIE 1990-09-20 12:00:00 TS 15.8000 -158.600 30 1012 hurdat_epa main 463 463 O_____________ hurdat_epa EP161990 15.8000 -158.600 TD 30 1012 -1 8 273
1990251N12238 1990 84 EP CP MARIE 1990-09-20 15:00:00 TS 15.8425 -159.057 main 500 492 P_____________ EP161990 15.8425 -159.057 TD 30 1012 -1 9 277
1990251N12238 1990 84 EP CP MARIE 1990-09-20 18:00:00 TS 15.9000 -159.500 30 1012 hurdat_epa main 523 523 O_____________ hurdat_epa EP161990 15.9000 -159.500 TD 30 1012 -1 8 278
1990251N12238 1990 84 EP CP MARIE 1990-09-20 21:00:00 TS 15.9525 -159.872 main 547 547 P_____________ EP161990 15.9525 -159.872 TD 27 1013 -1 7 278
1990251N12238 1990 84 EP CP MARIE 1990-09-21 00:00:00 TS 16.0000 -160.200 25 1014 hurdat_epa main 572 O_____________ hurdat_epa EP161990 16.0000 -160.200 TD 25 1014 -1 6 279

About IBTrACS Database

This database is a web-friendly format of International Best Track Archive for Climate Stewardship (IBTrACS), a global best track data archive curated by NOAA dating back to 1842.

Updated: 2021-10-21